createdAt,value
2023-04-25T00:05:06.359Z,8.40
2023-04-25T00:07:36.094Z,11.07
2023-04-25T00:10:04.789Z,16.40
2023-04-25T00:12:32.908Z,13.70
2023-04-25T00:15:01.102Z,10.55
2023-04-25T00:17:29.159Z,16.73
2023-04-25T00:19:57.101Z,13.88
2023-04-25T00:22:25.113Z,15.63
2023-04-25T00:24:54.577Z,10.98
2023-04-25T00:27:22.564Z,16.07
2023-04-25T00:29:51.122Z,10.85
2023-04-25T00:32:19.748Z,18.85
2023-04-25T00:34:48.936Z,11.55
2023-04-25T00:37:17.734Z,12.77
2023-04-25T00:39:45.545Z,16.50
2023-04-25T00:42:13.718Z,14.65
2023-04-25T00:44:41.709Z,19.85
2023-04-25T00:47:10.110Z,20.20
2023-04-25T00:49:38.030Z,15.32
2023-04-25T00:52:06.091Z,19.52
2023-04-25T00:54:33.794Z,15.98
2023-04-25T00:57:02.569Z,17.58
2023-04-25T00:59:31.989Z,19.73
2023-04-25T01:02:00.988Z,13.35
2023-04-25T01:04:30.165Z,22.30
2023-04-25T01:06:57.910Z,21.38
2023-04-25T01:09:26.036Z,28.17
2023-04-25T01:11:53.850Z,39.88
2023-04-25T01:14:21.569Z,19.52
2023-04-25T01:16:50.623Z,19.80
2023-04-25T01:19:19.491Z,15.73
2023-04-25T01:21:53.094Z,15.55
2023-04-25T01:24:21.204Z,18.05
2023-04-25T01:27:03.243Z,14.10
2023-04-25T01:29:31.686Z,15.25
2023-04-25T01:31:59.834Z,16.58
2023-04-25T01:34:28.210Z,13.52
2023-04-25T01:37:00.995Z,17.20
2023-04-25T01:39:30.318Z,23.20
2023-04-25T01:41:58.636Z,20.95
2023-04-25T01:44:27.140Z,15.20
2023-04-25T01:46:55.969Z,21.85
2023-04-25T01:49:23.906Z,19.02
2023-04-25T01:51:51.793Z,24.35
2023-04-25T01:54:20.433Z,23.83
2023-04-25T01:56:52.415Z,21.00
2023-04-25T01:59:23.025Z,20.65
2023-04-25T02:01:51.096Z,21.10
2023-04-25T02:04:28.816Z,22.58
2023-04-25T02:06:57.173Z,24.55
2023-04-25T02:09:30.911Z,28.50
2023-04-25T02:12:00.516Z,20.80
2023-04-25T02:14:54.082Z,23.85
2023-04-25T02:17:37.338Z,24.80
2023-04-25T02:20:05.740Z,23.00
2023-04-25T02:22:35.151Z,23.15
2023-04-25T02:25:03.483Z,24.80
2023-04-25T02:27:32.071Z,27.35
2023-04-25T02:29:59.897Z,17.35
2023-04-25T02:32:28.160Z,25.50
2023-04-25T02:34:56.762Z,18.25
2023-04-25T02:37:24.436Z,20.08
2023-04-25T02:39:52.051Z,19.35
2023-04-25T02:42:20.102Z,27.15
2023-04-25T02:44:49.738Z,25.02
2023-04-25T02:47:19.876Z,27.35
2023-04-25T02:49:51.414Z,25.05
2023-04-25T02:52:20.675Z,22.63
2023-04-25T02:54:55.457Z,23.08
2023-04-25T02:57:23.345Z,21.20
2023-04-25T02:59:51.014Z,26.65
2023-04-25T03:02:19.437Z,21.83
2023-04-25T03:04:50.170Z,26.88
2023-04-25T03:07:18.748Z,17.35
2023-04-25T03:09:49.975Z,19.90
2023-04-25T03:12:19.294Z,24.02
2023-04-25T03:14:48.600Z,25.27
2023-04-25T03:17:18.342Z,23.17
2023-04-25T03:19:46.017Z,21.90
2023-04-25T03:22:14.941Z,30.52
2023-04-25T03:24:42.979Z,25.65
2023-04-25T03:27:11.023Z,25.98
2023-04-25T03:29:38.921Z,21.67
2023-04-25T03:32:07.557Z,29.13
2023-04-25T03:34:35.394Z,22.70
2023-04-25T03:37:05.201Z,23.83
2023-04-25T03:39:39.915Z,27.00
2023-04-25T03:42:08.572Z,22.83
2023-04-25T03:44:39.598Z,24.63
2023-04-25T03:47:07.700Z,19.42
2023-04-25T03:49:36.718Z,25.60
2023-04-25T03:52:07.169Z,22.48
2023-04-25T03:54:39.519Z,24.77
2023-04-25T03:57:21.493Z,21.35
2023-04-25T03:59:49.809Z,23.23
2023-04-25T04:02:21.151Z,29.33
2023-04-25T04:04:50.142Z,32.30
2023-04-25T04:07:19.250Z,28.70
2023-04-25T04:09:49.865Z,29.70
2023-04-25T04:12:26.457Z,25.45
2023-04-25T04:14:56.237Z,30.02
2023-04-25T04:17:26.492Z,21.42
2023-04-25T04:19:54.423Z,38.50
2023-04-25T04:22:26.727Z,22.98
2023-04-25T04:24:58.313Z,26.65
2023-04-25T04:27:52.983Z,27.33
2023-04-25T04:30:42.481Z,29.38
2023-04-25T04:33:12.385Z,25.58
2023-04-25T04:35:43.334Z,22.08
2023-04-25T04:38:13.002Z,30.45
2023-04-25T04:40:40.646Z,20.13
2023-04-25T04:43:15.327Z,17.50
2023-04-25T04:46:05.322Z,25.38
2023-04-25T04:48:55.209Z,27.35
2023-04-25T04:51:59.672Z,29.98
2023-04-25T04:54:38.663Z,29.35
2023-04-25T04:57:19.112Z,25.85
2023-04-25T05:00:25.786Z,29.77
2023-04-25T05:03:18.918Z,28.08
2023-04-25T05:06:06.744Z,29.98
2023-04-25T05:09:01.298Z,24.65
2023-04-25T05:11:50.954Z,26.33
2023-04-25T05:14:48.511Z,24.45
2023-04-25T05:17:40.461Z,28.20
2023-04-25T05:20:27.811Z,27.25
2023-04-25T05:23:09.032Z,27.13
2023-04-25T05:25:59.269Z,27.20
2023-04-25T05:28:45.383Z,29.65
2023-04-25T05:31:25.064Z,22.23
2023-04-25T05:34:03.117Z,27.35
2023-04-25T05:36:42.844Z,34.72
2023-04-25T05:39:10.828Z,24.88
2023-04-25T05:42:08.010Z,23.48
2023-04-25T05:44:56.258Z,24.92
2023-04-25T05:47:33.553Z,25.65
2023-04-25T05:50:12.112Z,22.60
2023-04-25T05:53:00.433Z,28.00
2023-04-25T05:55:34.505Z,24.70
2023-04-25T05:58:09.215Z,24.98
2023-04-25T06:00:37.160Z,30.67
2023-04-25T06:03:05.506Z,15.65
2023-04-25T06:05:33.446Z,15.95
2023-04-25T06:08:01.502Z,23.23
2023-04-25T06:10:34.063Z,19.70
2023-04-25T06:13:01.655Z,12.75
2023-04-25T06:15:30.992Z,15.65
2023-04-25T06:17:59.188Z,19.83
2023-04-25T06:20:27.027Z,17.70
2023-04-25T06:22:57.672Z,13.85
2023-04-25T06:25:38.091Z,18.02
2023-04-25T06:28:06.307Z,20.90
2023-04-25T06:30:34.181Z,14.02
2023-04-25T06:33:10.071Z,15.90
2023-04-25T06:35:40.146Z,18.35
2023-04-25T06:38:11.533Z,14.18
2023-04-25T06:40:42.064Z,22.25
2023-04-25T06:43:11.193Z,12.02
2023-04-25T06:45:57.756Z,13.13
2023-04-25T06:48:30.900Z,14.75
2023-04-25T06:53:27.964Z,10.85
2023-04-25T06:56:00.952Z,18.40
2023-04-25T06:58:42.407Z,22.10
2023-04-25T07:01:14.795Z,12.18
2023-04-25T07:03:43.061Z,16.33
2023-04-25T07:06:22.809Z,23.42
2023-04-25T07:08:51.079Z,18.33
2023-04-25T07:11:20.831Z,10.25
2023-04-25T07:13:49.868Z,12.40
2023-04-25T07:16:18.822Z,12.70
2023-04-25T07:18:48.738Z,21.83
2023-04-25T07:21:17.427Z,21.25
2023-04-25T07:23:48.359Z,14.15
2023-04-25T07:26:20.640Z,9.77
2023-04-25T07:29:06.925Z,14.80
2023-04-25T07:31:37.810Z,12.52
2023-04-25T07:34:06.848Z,10.75
2023-04-25T07:36:35.000Z,16.13
2023-04-25T07:39:03.147Z,19.27
2023-04-25T07:41:33.587Z,19.17
2023-04-25T07:44:02.032Z,11.95
2023-04-25T07:46:32.000Z,13.48
2023-04-25T07:49:00.060Z,10.65
2023-04-25T07:51:27.722Z,16.50
2023-04-25T07:53:58.859Z,15.73
2023-04-25T07:56:27.008Z,12.27
2023-04-25T07:58:55.289Z,18.65
2023-04-25T08:01:26.178Z,16.63
2023-04-25T08:03:59.957Z,13.15
2023-04-25T08:06:35.715Z,10.75
2023-04-25T08:09:10.506Z,11.70
2023-04-25T08:11:41.460Z,16.08
2023-04-25T08:14:11.202Z,11.45
2023-04-25T08:16:40.161Z,10.98
2023-04-25T08:19:08.933Z,8.70
2023-04-25T08:21:36.907Z,11.75
2023-04-25T08:24:10.309Z,14.13
2023-04-25T08:26:40.976Z,9.73
2023-04-25T08:29:10.174Z,9.52
2023-04-25T08:31:41.076Z,14.85
2023-04-25T08:34:10.956Z,7.88
2023-04-25T08:36:47.211Z,11.75
2023-04-25T08:39:26.694Z,13.50
2023-04-25T08:42:22.138Z,15.60
2023-04-25T08:44:51.487Z,12.32
2023-04-25T08:47:22.995Z,15.88
2023-04-25T08:49:56.205Z,12.05
2023-04-25T08:52:27.983Z,15.30
2023-04-25T08:54:56.865Z,8.82
2023-04-25T08:57:27.116Z,16.10
2023-04-25T08:59:55.256Z,11.63
2023-04-25T09:02:27.504Z,6.80
2023-04-25T09:04:56.878Z,10.20
2023-04-25T09:07:27.825Z,15.13
2023-04-25T09:09:56.247Z,12.90
2023-04-25T09:12:25.185Z,8.60
2023-04-25T09:15:24.283Z,9.07
2023-04-25T09:18:00.281Z,12.18
2023-04-25T09:20:37.686Z,7.10
2023-04-25T09:23:08.426Z,9.90
2023-04-25T09:25:44.134Z,9.30
2023-04-25T09:28:13.453Z,10.60
2023-04-25T09:30:42.051Z,7.67
2023-04-25T09:33:19.536Z,7.10
2023-04-25T09:35:56.670Z,13.32
2023-04-25T09:38:44.605Z,11.90
2023-04-25T09:41:26.166Z,11.18
2023-04-25T09:44:00.371Z,8.48
2023-04-25T09:46:40.719Z,7.07
2023-04-25T09:49:17.286Z,9.98
2023-04-25T09:51:58.496Z,7.53
2023-04-25T09:54:30.874Z,12.68
2023-04-25T09:57:19.040Z,9.15
2023-04-25T09:59:55.577Z,9.52
2023-04-25T10:02:26.291Z,9.23
2023-04-25T10:04:58.291Z,5.35
2023-04-25T10:07:32.954Z,7.60
2023-04-25T10:10:04.972Z,7.88
2023-04-25T10:12:33.256Z,11.50
2023-04-25T10:15:01.642Z,10.75
2023-04-25T10:17:29.697Z,9.07
2023-04-25T10:19:57.983Z,6.80
2023-04-25T10:22:31.958Z,9.30
2023-04-25T10:25:00.410Z,5.13
2023-04-25T10:27:32.043Z,7.07
2023-04-25T10:30:05.639Z,9.10
2023-04-25T10:32:34.308Z,8.43
2023-04-25T10:35:12.871Z,6.13
2023-04-25T10:37:58.624Z,7.93
2023-04-25T10:40:27.186Z,8.10
2023-04-25T10:42:56.518Z,7.95
2023-04-25T10:45:28.176Z,3.97
2023-04-25T10:48:01.990Z,8.90
2023-04-25T10:50:40.989Z,10.35
2023-04-25T10:53:19.030Z,6.20
2023-04-25T10:55:56.751Z,6.90
2023-04-25T10:58:25.008Z,11.38
2023-04-25T11:00:57.589Z,11.85
2023-04-25T11:03:28.161Z,5.85
2023-04-25T11:05:58.783Z,9.98
2023-04-25T11:08:54.625Z,6.10
2023-04-25T11:11:22.610Z,6.25
2023-04-25T11:13:53.559Z,11.25
2023-04-25T11:16:27.306Z,8.20
2023-04-25T11:18:58.936Z,7.85
2023-04-25T11:21:30.064Z,7.15
2023-04-25T11:23:58.807Z,7.43
2023-04-25T11:26:27.574Z,8.20
2023-04-25T11:28:59.954Z,11.48
2023-04-25T11:31:28.085Z,11.90
2023-04-25T11:33:58.594Z,6.47
2023-04-25T11:38:56.536Z,5.28
2023-04-25T11:41:30.977Z,8.10
2023-04-25T11:43:59.034Z,5.80
2023-04-25T11:46:26.706Z,9.80
2023-04-25T11:48:57.662Z,6.63
2023-04-25T11:51:28.857Z,6.10
2023-04-25T11:53:56.841Z,5.82
2023-04-25T11:56:29.567Z,3.10
2023-04-25T11:59:03.988Z,9.52
2023-04-25T12:01:36.641Z,6.10
2023-04-25T12:04:21.797Z,8.75
2023-04-25T12:06:53.386Z,6.20
2023-04-25T12:09:25.678Z,7.18
2023-04-25T12:11:57.527Z,10.85
2023-04-25T12:14:26.413Z,5.50
2023-04-25T12:16:58.853Z,4.88
2023-04-25T12:19:28.149Z,7.63
2023-04-25T12:21:59.059Z,6.95
2023-04-25T12:24:29.342Z,7.18
2023-04-25T12:27:09.895Z,8.93
2023-04-25T12:32:19.731Z,5.57
2023-04-25T12:34:48.990Z,7.47
2023-04-25T12:37:20.774Z,5.20
2023-04-25T12:39:49.130Z,6.55
2023-04-25T12:42:17.853Z,2.25
2023-04-25T12:44:45.901Z,10.73
2023-04-25T12:47:13.933Z,3.55
2023-04-25T12:49:41.873Z,5.90
2023-04-25T12:52:09.618Z,7.00
2023-04-25T12:54:37.430Z,7.75
2023-04-25T12:57:06.374Z,7.43
2023-04-25T12:59:34.010Z,7.25
2023-04-25T13:02:05.299Z,9.80
2023-04-25T13:04:33.845Z,7.90
2023-04-25T13:07:07.367Z,7.68
2023-04-25T13:09:35.255Z,6.40
2023-04-25T13:12:03.915Z,4.47
2023-04-25T13:14:31.838Z,4.97
2023-04-25T13:17:00.489Z,7.60
2023-04-25T13:19:29.141Z,4.43
2023-04-25T13:21:57.928Z,6.75
2023-04-25T13:24:25.969Z,6.90
2023-04-25T13:26:54.337Z,8.48
2023-04-25T13:29:22.843Z,7.18
2023-04-25T13:31:50.581Z,6.78
2023-04-25T13:34:19.558Z,4.53
2023-04-25T13:36:48.761Z,5.55
2023-04-25T13:39:17.272Z,7.43
2023-04-25T13:41:45.358Z,5.75
2023-04-25T13:44:13.251Z,5.78
2023-04-25T13:46:46.902Z,5.15
2023-04-25T13:49:17.074Z,6.07
2023-04-25T13:51:45.975Z,4.18
2023-04-25T13:54:17.435Z,8.85
2023-04-25T13:56:45.794Z,7.10
2023-04-25T13:59:13.967Z,5.80
2023-04-25T14:01:42.879Z,3.50
2023-04-25T14:06:52.772Z,3.63
2023-04-25T14:09:26.676Z,6.63
2023-04-25T14:11:56.801Z,5.50
2023-04-25T14:14:25.261Z,7.20
2023-04-25T14:16:58.211Z,7.15
2023-04-25T14:19:26.656Z,6.22
2023-04-25T14:21:54.451Z,3.17
2023-04-25T14:24:22.253Z,2.15
2023-04-25T14:26:50.142Z,5.65
2023-04-25T14:29:21.592Z,5.03
2023-04-25T14:31:52.622Z,3.55
2023-04-25T14:34:23.074Z,3.95
2023-04-25T14:36:50.925Z,7.65
2023-04-25T14:39:20.293Z,3.78
2023-04-25T14:41:48.754Z,4.43
2023-04-25T14:44:17.101Z,6.13
2023-04-25T14:46:47.539Z,7.22
2023-04-25T14:51:45.812Z,5.45
2023-04-25T14:54:13.547Z,6.10
2023-04-25T14:56:41.443Z,8.15
2023-04-25T14:59:10.405Z,6.30
2023-04-25T15:01:38.308Z,9.48
2023-04-25T15:04:06.380Z,9.48
2023-04-25T15:06:35.030Z,7.18
2023-04-25T15:09:03.028Z,8.02
2023-04-25T15:11:31.407Z,9.13
2023-04-25T15:13:59.105Z,4.45
2023-04-25T15:16:28.526Z,8.95
2023-04-25T15:18:56.121Z,7.82
2023-04-25T15:21:23.986Z,5.60
2023-04-25T15:23:52.504Z,9.02
2023-04-25T15:26:20.640Z,7.90
2023-04-25T15:28:49.703Z,7.97
2023-04-25T15:31:18.840Z,8.90
2023-04-25T15:33:46.969Z,6.40
2023-04-25T15:36:19.037Z,7.13
2023-04-25T15:38:49.674Z,6.82
2023-04-25T15:41:20.870Z,13.52
2023-04-25T15:43:50.113Z,12.95
2023-04-25T15:46:20.276Z,12.32
2023-04-25T15:48:51.949Z,8.07
2023-04-25T15:51:19.877Z,8.27
2023-04-25T15:53:51.278Z,8.63
2023-04-25T15:56:19.622Z,4.45
2023-04-25T15:58:50.246Z,6.38
2023-04-25T16:01:18.615Z,5.28
2023-04-25T16:04:05.658Z,11.63
2023-04-25T16:06:34.963Z,9.25
2023-04-25T16:09:02.796Z,6.03
2023-04-25T16:11:30.682Z,8.13
2023-04-25T16:13:58.380Z,5.72
2023-04-25T16:16:26.578Z,13.55
2023-04-25T16:18:54.389Z,7.28
2023-04-25T16:21:22.191Z,6.40
2023-04-25T16:23:50.176Z,11.02
2023-04-25T16:26:18.345Z,11.93
2023-04-25T16:28:48.186Z,7.55
2023-04-25T16:31:17.383Z,7.65
2023-04-25T16:33:45.199Z,10.05
2023-04-25T16:36:13.729Z,5.03
2023-04-25T16:38:41.839Z,6.00
2023-04-25T16:41:13.637Z,7.10
2023-04-25T16:43:41.997Z,9.15
2023-04-25T16:46:10.048Z,6.50
2023-04-25T16:48:38.486Z,5.90
2023-04-25T16:51:06.387Z,10.38
2023-04-25T16:53:36.331Z,8.50
2023-04-25T16:56:08.601Z,10.80
2023-04-25T16:58:37.736Z,7.45
2023-04-25T17:01:07.283Z,12.48
2023-04-25T17:03:36.674Z,7.75
2023-04-25T17:06:04.615Z,10.87
2023-04-25T17:08:32.606Z,12.18
2023-04-25T17:11:00.760Z,8.02
2023-04-25T17:13:30.832Z,5.57
2023-04-25T17:16:00.087Z,7.22
2023-04-25T17:18:30.050Z,7.43
2023-04-25T17:20:57.798Z,9.20
2023-04-25T17:23:26.161Z,4.68
2023-04-25T17:25:54.335Z,8.13
2023-04-25T17:28:22.543Z,8.93
2023-04-25T17:30:50.226Z,7.60
2023-04-25T17:33:19.485Z,9.00
2023-04-25T17:35:48.087Z,8.00
2023-04-25T17:38:19.397Z,5.60
2023-04-25T17:40:49.108Z,8.63
2023-04-25T17:43:17.082Z,8.23
2023-04-25T17:45:45.055Z,8.18
2023-04-25T17:48:12.948Z,7.43
2023-04-25T17:50:40.660Z,7.90
2023-04-25T17:53:09.952Z,9.88
2023-04-25T17:55:38.049Z,11.50
2023-04-25T17:58:05.686Z,9.15
2023-04-25T18:00:33.932Z,11.10
2023-04-25T18:03:02.241Z,12.45
2023-04-25T18:05:31.207Z,4.43
2023-04-25T18:08:00.837Z,12.68
2023-04-25T18:10:28.696Z,9.10
2023-04-25T18:12:56.630Z,5.50
2023-04-25T18:15:25.114Z,11.55
2023-04-25T18:17:53.220Z,6.50
2023-04-25T18:20:22.431Z,5.80
2023-04-25T18:22:51.225Z,6.13
2023-04-25T18:25:19.952Z,7.82
2023-04-25T18:27:48.276Z,8.88
2023-04-25T18:30:17.431Z,10.73
2023-04-25T18:32:45.565Z,7.13
2023-04-25T18:35:14.498Z,11.70
2023-04-25T18:37:42.607Z,8.75
2023-04-25T18:40:14.202Z,8.40
2023-04-25T18:42:43.042Z,12.73
2023-04-25T18:45:11.233Z,6.50
2023-04-25T18:47:39.229Z,7.57
2023-04-25T18:50:08.331Z,8.15
2023-04-25T18:52:37.885Z,9.68
2023-04-25T18:55:06.044Z,6.10
2023-04-25T18:57:34.886Z,8.45
2023-04-25T19:00:05.516Z,11.05
2023-04-25T19:02:34.186Z,7.72
2023-04-25T19:05:03.267Z,9.15
2023-04-25T19:07:32.638Z,11.18
2023-04-25T19:10:00.638Z,8.75
2023-04-25T19:12:29.154Z,7.50
2023-04-25T19:14:59.232Z,6.40
2023-04-25T19:17:30.262Z,12.77
2023-04-25T19:19:58.279Z,10.05
2023-04-25T19:22:33.061Z,5.95
2023-04-25T19:25:10.549Z,9.80
2023-04-25T19:27:40.774Z,9.25
2023-04-25T19:30:10.304Z,7.22
2023-04-25T19:32:39.219Z,7.70
2023-04-25T19:35:11.417Z,10.63
2023-04-25T19:37:52.340Z,8.57
2023-04-25T19:40:23.338Z,5.82
2023-04-25T19:42:51.226Z,5.57
2023-04-25T19:45:19.282Z,12.73
2023-04-25T19:47:48.842Z,7.90
2023-04-25T19:50:17.597Z,7.90
2023-04-25T19:52:45.556Z,8.57
2023-04-25T19:55:14.831Z,10.70
2023-04-25T19:57:44.728Z,9.80
2023-04-25T20:00:14.522Z,6.85
2023-04-25T20:02:47.645Z,8.38
2023-04-25T20:05:20.737Z,7.63
2023-04-25T20:07:50.677Z,8.63
2023-04-25T20:10:20.022Z,6.35
2023-04-25T20:12:48.897Z,10.40
2023-04-25T20:15:18.980Z,10.38
2023-04-25T20:17:48.487Z,14.75
2023-04-25T20:20:19.428Z,14.23
2023-04-25T20:22:49.001Z,10.93
2023-04-25T20:25:17.280Z,16.47
2023-04-25T20:27:48.293Z,9.77
2023-04-25T20:30:20.787Z,7.60
2023-04-25T20:32:50.233Z,13.32
2023-04-25T20:35:18.550Z,8.35
2023-04-25T20:37:47.498Z,10.88
2023-04-25T20:40:17.415Z,10.75
2023-04-25T20:42:46.996Z,8.73
2023-04-25T20:45:18.617Z,17.58
2023-04-25T20:47:47.704Z,7.55
2023-04-25T20:50:18.617Z,14.60
2023-04-25T20:52:49.379Z,13.38
2023-04-25T20:55:18.840Z,19.83
2023-04-25T20:57:49.197Z,12.20
2023-04-25T21:00:18.910Z,8.93
2023-04-25T21:02:49.390Z,10.80
2023-04-25T21:07:46.346Z,10.63
2023-04-25T21:10:15.725Z,13.70
2023-04-25T21:12:50.195Z,12.30
2023-04-25T21:15:20.494Z,13.40
2023-04-25T21:17:49.919Z,12.18
2023-04-25T21:20:21.995Z,14.73
2023-04-25T21:22:54.271Z,9.90
2023-04-25T21:25:31.966Z,10.30
2023-04-25T21:28:00.217Z,10.55
2023-04-25T21:30:28.664Z,13.40
2023-04-25T21:32:56.986Z,9.77
2023-04-25T21:35:26.249Z,9.25
2023-04-25T21:37:54.257Z,13.75
2023-04-25T21:40:22.732Z,17.83
2023-04-25T21:42:52.017Z,11.40
2023-04-25T21:45:21.598Z,16.13
2023-04-25T21:47:51.295Z,15.10
2023-04-25T21:50:20.415Z,9.43
2023-04-25T21:52:52.046Z,13.20
2023-04-25T21:55:22.252Z,12.38
2023-04-25T21:57:52.257Z,7.50
2023-04-25T22:00:21.550Z,8.77
2023-04-25T22:02:49.910Z,6.78
2023-04-25T22:05:21.442Z,13.90
2023-04-25T22:07:51.230Z,10.20
2023-04-25T22:10:19.950Z,8.50
2023-04-25T22:12:51.137Z,12.57
2023-04-25T22:15:24.858Z,16.45
2023-04-25T22:17:54.125Z,12.65
2023-04-25T22:20:26.635Z,10.82
2023-04-25T22:22:59.860Z,13.70
2023-04-25T22:25:27.698Z,15.13
2023-04-25T22:27:55.953Z,11.63
2023-04-25T22:30:24.347Z,14.23
2023-04-25T22:32:52.771Z,13.45
2023-04-25T22:35:23.515Z,13.20
2023-04-25T22:37:52.613Z,9.52
2023-04-25T22:40:20.793Z,9.35
2023-04-25T22:42:49.758Z,11.27
2023-04-25T22:45:23.673Z,14.02
2023-04-25T22:47:51.929Z,13.50
2023-04-25T22:50:20.446Z,15.77
2023-04-25T22:52:49.660Z,12.55
2023-04-25T22:55:18.435Z,15.45
2023-04-25T22:57:48.031Z,10.15
2023-04-25T23:00:17.288Z,12.45
2023-04-25T23:02:48.845Z,17.58
2023-04-25T23:05:17.388Z,17.25
2023-04-25T23:07:45.543Z,14.98
2023-04-25T23:10:15.847Z,12.52
2023-04-25T23:12:44.592Z,12.70
2023-04-25T23:15:13.834Z,20.27
2023-04-25T23:17:42.550Z,9.52
2023-04-25T23:20:16.654Z,10.95
2023-04-25T23:22:45.599Z,13.57
2023-04-25T23:25:18.083Z,16.00
2023-04-25T23:27:47.394Z,11.90
2023-04-25T23:30:20.997Z,11.73
2023-04-25T23:32:50.820Z,12.25
2023-04-25T23:35:21.651Z,12.80
2023-04-25T23:37:52.582Z,10.95
2023-04-25T23:40:20.460Z,19.85
2023-04-25T23:42:48.858Z,15.18
2023-04-25T23:45:18.049Z,12.32
2023-04-25T23:47:47.532Z,13.02
2023-04-25T23:50:16.017Z,13.18
2023-04-25T23:52:45.327Z,15.57
2023-04-25T23:55:14.023Z,22.83
2023-04-25T23:57:44.593Z,18.83
